createdAt,value
2019-03-10T00:01:07.497Z,98550.28
2019-03-10T00:03:43.239Z,98566.31
2019-03-10T00:06:19.106Z,98588.22
2019-03-10T00:08:54.948Z,98605.20
2019-03-10T00:11:30.814Z,98619.83
2019-03-10T00:14:06.653Z,98617.11
2019-03-10T00:16:42.405Z,98618.31
2019-03-10T00:19:18.318Z,98635.22
2019-03-10T00:21:54.122Z,98643.64
2019-03-10T00:24:29.861Z,98654.98
2019-03-10T00:27:05.627Z,98680.86
2019-03-10T00:29:41.467Z,98726.56
2019-03-10T00:32:17.334Z,98693.78
2019-03-10T00:34:53.281Z,98669.34
2019-03-10T00:37:29.139Z,98692.64
2019-03-10T00:40:07.963Z,98700.45
2019-03-10T00:43:09.519Z,98704.41
2019-03-10T00:46:05.444Z,98748.96
2019-03-10T00:48:56.258Z,98722.63
2019-03-10T00:51:50.018Z,98743.44
2019-03-10T00:54:25.780Z,98734.82
2019-03-10T00:57:01.632Z,98699.23
2019-03-10T00:59:37.492Z,98759.77
2019-03-10T01:02:13.346Z,98764.77
2019-03-10T01:04:49.195Z,98756.62
2019-03-10T01:07:24.935Z,98784.64
2019-03-10T01:10:00.810Z,98784.94
2019-03-10T01:12:36.658Z,98797.58
2019-03-10T01:15:14.046Z,98796.73
2019-03-10T01:17:50.200Z,98814.07
2019-03-10T01:20:26.163Z,98811.91
2019-03-10T01:23:02.926Z,98828.84
2019-03-10T01:25:57.731Z,98810.43
2019-03-10T01:28:33.591Z,98829.56
2019-03-10T01:31:21.327Z,98830.36
2019-03-10T01:34:16.728Z,98832.22
2019-03-10T01:36:52.594Z,98844.58
2019-03-10T01:39:28.350Z,98847.86
2019-03-10T01:42:04.197Z,98849.25
2019-03-10T01:44:40.048Z,98844.67
2019-03-10T01:47:15.900Z,98870.16
2019-03-10T01:49:51.749Z,98877.30
2019-03-10T01:52:27.667Z,98862.25
2019-03-10T01:55:03.664Z,98868.07
2019-03-10T01:57:39.630Z,98870.50
2019-03-10T02:00:18.352Z,98863.67
2019-03-10T02:02:54.200Z,98886.71
2019-03-10T02:05:30.059Z,98887.56
2019-03-10T02:08:06.005Z,98894.32
2019-03-10T02:10:41.867Z,98883.77
2019-03-10T02:13:17.650Z,98881.22
2019-03-10T02:15:53.872Z,98880.14
2019-03-10T02:18:29.621Z,98860.83
2019-03-10T02:21:05.656Z,98870.12
2019-03-10T02:23:41.539Z,98866.03
2019-03-10T02:26:17.306Z,98884.12
2019-03-10T02:28:53.154Z,98883.09
2019-03-10T02:31:28.999Z,98873.08
2019-03-10T02:34:04.866Z,98886.38
2019-03-10T02:36:40.711Z,98877.30
2019-03-10T02:39:16.659Z,98888.39
2019-03-10T02:41:52.423Z,98876.69
2019-03-10T02:44:28.283Z,98870.23
2019-03-10T02:47:04.134Z,98867.22
2019-03-10T02:49:39.985Z,98859.37
2019-03-10T02:52:15.827Z,98861.41
2019-03-10T02:54:51.699Z,98856.05
2019-03-10T02:57:27.548Z,98847.59
2019-03-10T03:00:04.728Z,98849.31
2019-03-10T03:02:40.573Z,98845.73
2019-03-10T03:05:16.330Z,98849.78
2019-03-10T03:07:52.188Z,98843.80
2019-03-10T03:10:27.948Z,98858.36
2019-03-10T03:13:03.688Z,98860.45
2019-03-10T03:15:39.545Z,98871.23
2019-03-10T03:18:15.387Z,98874.13
2019-03-10T03:20:51.146Z,98873.09
2019-03-10T03:23:27.008Z,98872.56
2019-03-10T03:26:02.862Z,98867.66
2019-03-10T03:28:38.708Z,98878.80
2019-03-10T03:31:14.584Z,98887.11
2019-03-10T03:33:51.435Z,98895.14
2019-03-10T03:36:32.233Z,98887.86
2019-03-10T03:39:17.465Z,98894.14
2019-03-10T03:41:53.345Z,98896.45
2019-03-10T03:44:29.294Z,98893.88
2019-03-10T03:47:05.144Z,98904.57
2019-03-10T03:49:41.113Z,98904.78
2019-03-10T03:52:16.952Z,98901.45
2019-03-10T03:54:52.706Z,98903.45
2019-03-10T03:57:28.575Z,98900.34
2019-03-10T04:00:08.216Z,98905.83
2019-03-10T04:02:43.954Z,98907.20
2019-03-10T04:05:19.822Z,98904.66
2019-03-10T04:07:55.663Z,98906.45
2019-03-10T04:10:31.516Z,98908.50
2019-03-10T04:13:07.268Z,98916.02
2019-03-10T04:15:43.225Z,98908.24
2019-03-10T04:18:19.383Z,98912.02
2019-03-10T04:20:55.144Z,98904.59
2019-03-10T04:23:31.011Z,98899.62
2019-03-10T04:26:06.849Z,98898.98
2019-03-10T04:28:42.708Z,98899.51
2019-03-10T04:31:18.551Z,98901.08
2019-03-10T04:33:54.303Z,98892.16
2019-03-10T04:36:30.065Z,98896.11
2019-03-10T04:39:07.449Z,98897.81
2019-03-10T04:41:43.304Z,98892.95
2019-03-10T04:44:20.089Z,98890.77
2019-03-10T04:46:55.931Z,98893.28
2019-03-10T04:49:31.795Z,98893.71
2019-03-10T04:52:07.647Z,98885.82
2019-03-10T04:54:50.870Z,98879.66
2019-03-10T04:57:27.951Z,98883.83
2019-03-10T05:00:04.731Z,98877.25
2019-03-10T05:02:40.689Z,98872.25
2019-03-10T05:05:17.670Z,98865.61
2019-03-10T05:07:53.521Z,98865.41
2019-03-10T05:10:29.381Z,98862.79
2019-03-10T05:13:05.117Z,98862.64
2019-03-10T05:15:40.975Z,98856.54
2019-03-10T05:18:16.840Z,98858.11
2019-03-10T05:20:52.695Z,98865.96
2019-03-10T05:23:36.632Z,98867.06
2019-03-10T05:26:12.590Z,98868.11
2019-03-10T05:28:49.676Z,98870.30
2019-03-10T05:31:25.532Z,98856.90
2019-03-10T05:34:01.380Z,98865.64
2019-03-10T05:36:37.238Z,98859.08
2019-03-10T05:39:13.064Z,98866.22
2019-03-10T05:41:48.839Z,98858.77
2019-03-10T05:44:24.703Z,98862.63
2019-03-10T05:47:00.435Z,98857.03
2019-03-10T05:49:36.231Z,98853.55
2019-03-10T05:52:12.046Z,98858.87
2019-03-10T05:54:48.148Z,98854.61
2019-03-10T05:57:23.819Z,98851.73
2019-03-10T05:59:59.616Z,98855.42
2019-03-10T06:02:35.466Z,98863.09
2019-03-10T06:05:11.324Z,98869.45
2019-03-10T06:07:47.174Z,98867.52
2019-03-10T06:10:24.048Z,98868.58
2019-03-10T06:12:59.902Z,98861.12
2019-03-10T06:15:36.789Z,98859.87
2019-03-10T06:18:13.874Z,98853.88
2019-03-10T06:20:50.009Z,98854.88
2019-03-10T06:23:27.727Z,98846.23
2019-03-10T06:26:04.509Z,98851.64
2019-03-10T06:28:40.395Z,98853.86
2019-03-10T06:31:16.149Z,98850.67
2019-03-10T06:33:51.916Z,98856.27
2019-03-10T06:36:36.794Z,98847.89
2019-03-10T06:39:17.314Z,98852.78
2019-03-10T06:41:53.135Z,98851.20
2019-03-10T06:44:29.004Z,98851.40
2019-03-10T06:47:04.839Z,98850.59
2019-03-10T06:49:40.709Z,98851.77
2019-03-10T06:52:16.556Z,98856.98
2019-03-10T06:54:52.407Z,98844.58
2019-03-10T06:57:28.181Z,98836.11
2019-03-10T07:00:05.348Z,98839.45
2019-03-10T07:02:41.199Z,98832.67
2019-03-10T07:05:16.944Z,98840.72
2019-03-10T07:07:52.802Z,98824.20
2019-03-10T07:10:28.554Z,98830.27
2019-03-10T07:13:04.419Z,98829.80
2019-03-10T07:15:40.309Z,98833.58
2019-03-10T07:18:17.343Z,98831.89
2019-03-10T07:20:54.737Z,98827.81
2019-03-10T07:23:31.214Z,98825.92
2019-03-10T07:26:07.068Z,98810.69
2019-03-10T07:28:44.647Z,98813.53
2019-03-10T07:31:31.259Z,98819.55
2019-03-10T07:34:25.144Z,98813.88
2019-03-10T07:37:02.473Z,98826.63
2019-03-10T07:39:42.587Z,98832.00
2019-03-10T07:42:26.015Z,98836.33
2019-03-10T07:45:06.479Z,98838.97
2019-03-10T07:48:00.037Z,98828.09
2019-03-10T07:50:40.877Z,98835.34
2019-03-10T07:53:18.305Z,98833.64
2019-03-10T07:56:05.014Z,98822.23
2019-03-10T07:58:42.514Z,98827.39
2019-03-10T08:01:38.219Z,98827.09
2019-03-10T08:04:31.899Z,98828.48
2019-03-10T08:07:27.878Z,98820.19
2019-03-10T08:10:24.671Z,98811.31
2019-03-10T08:13:11.178Z,98814.15
2019-03-10T08:15:57.924Z,98810.34
2019-03-10T08:18:35.272Z,98797.70
2019-03-10T08:21:12.677Z,98784.61
2019-03-10T08:23:53.116Z,98782.27
2019-03-10T08:26:33.471Z,98775.89
2019-03-10T08:29:16.910Z,98773.23
2019-03-10T08:31:57.368Z,98759.47
2019-03-10T08:34:40.608Z,98759.58
2019-03-10T08:37:24.047Z,98755.55
2019-03-10T08:40:01.532Z,98741.88
2019-03-10T08:42:55.091Z,98740.48
2019-03-10T08:45:38.518Z,98739.87
2019-03-10T08:48:15.912Z,98740.77
2019-03-10T08:50:53.315Z,98724.83
2019-03-10T08:53:39.921Z,98717.25
2019-03-10T08:56:20.368Z,98722.95
2019-03-10T08:59:07.076Z,98714.63
2019-03-10T09:02:00.653Z,98706.42
2019-03-10T09:04:54.421Z,98690.20
2019-03-10T09:07:31.813Z,98690.52
2019-03-10T09:10:28.047Z,98678.41
2019-03-10T09:13:08.208Z,98661.96
2019-03-10T09:15:45.590Z,98666.95
2019-03-10T09:18:35.065Z,98659.05
2019-03-10T09:21:21.461Z,98656.63
2019-03-10T09:24:07.963Z,98644.59
2019-03-10T09:26:54.380Z,98645.18
2019-03-10T09:29:34.534Z,98639.63
2019-03-10T09:32:14.682Z,98633.47
2019-03-10T09:34:54.831Z,98631.55
2019-03-10T09:37:38.070Z,98626.96
2019-03-10T09:40:18.432Z,98624.06
2019-03-10T09:43:08.005Z,98622.37
2019-03-10T09:46:03.724Z,98621.08
2019-03-10T09:48:41.111Z,98615.89
2019-03-10T09:51:27.934Z,98615.78
2019-03-10T09:54:21.802Z,98619.77
2019-03-10T09:57:01.958Z,98602.84
2019-03-10T09:59:39.463Z,98612.76
2019-03-10T10:02:29.028Z,98610.70
2019-03-10T10:05:11.333Z,98617.36
2019-03-10T10:08:04.476Z,98613.84
2019-03-10T10:10:50.884Z,98610.34
2019-03-10T10:13:28.278Z,98599.69
2019-03-10T10:16:08.486Z,98605.73
2019-03-10T10:18:51.660Z,98614.47
2019-03-10T10:21:28.994Z,98614.47
2019-03-10T10:24:06.537Z,98605.86
2019-03-10T10:26:43.890Z,98599.46
2019-03-10T10:29:37.524Z,98591.23
2019-03-10T10:32:17.832Z,98588.58
2019-03-10T10:34:57.945Z,98577.81
2019-03-10T10:37:38.342Z,98576.23
2019-03-10T10:40:31.767Z,98572.59
2019-03-10T10:43:18.044Z,98566.88
2019-03-10T10:45:58.185Z,98556.42
2019-03-10T10:48:38.970Z,98555.77
2019-03-10T10:51:19.112Z,98542.56
2019-03-10T10:54:11.857Z,98537.44
2019-03-10T10:56:49.258Z,98534.19
2019-03-10T10:59:35.763Z,98523.42
2019-03-10T11:02:13.152Z,98518.55
2019-03-10T11:05:07.136Z,98520.13
2019-03-10T11:07:50.565Z,98518.36
2019-03-10T11:10:29.077Z,98512.48
2019-03-10T11:13:09.439Z,98498.69
2019-03-10T11:16:02.179Z,98489.38
2019-03-10T11:18:39.755Z,98479.10
2019-03-10T11:21:17.163Z,98466.49
2019-03-10T11:24:00.600Z,98459.50
2019-03-10T11:26:44.037Z,98458.43
2019-03-10T11:29:24.189Z,98447.25
2019-03-10T11:32:01.584Z,98440.52
2019-03-10T11:34:44.803Z,98436.57
2019-03-10T11:37:34.491Z,98435.77
2019-03-10T11:40:12.395Z,98421.54
2019-03-10T11:42:49.784Z,98419.59
2019-03-10T11:45:42.329Z,98418.99
2019-03-10T11:48:19.819Z,98409.56
2019-03-10T11:51:09.190Z,98408.30
2019-03-10T11:53:46.492Z,98397.69
2019-03-10T11:56:29.707Z,98400.37
2019-03-10T11:59:07.299Z,98391.78
2019-03-10T12:01:47.867Z,98386.00
2019-03-10T12:04:34.153Z,98386.87
2019-03-10T12:07:20.873Z,98382.56
2019-03-10T12:09:56.724Z,98381.28
2019-03-10T12:12:32.582Z,98375.48
2019-03-10T12:15:11.488Z,98374.77
2019-03-10T12:17:47.885Z,98368.47
2019-03-10T12:20:23.611Z,98365.92
2019-03-10T12:23:00.331Z,98358.05
2019-03-10T12:25:36.139Z,98357.36
2019-03-10T12:28:13.325Z,98352.92
2019-03-10T12:30:49.175Z,98353.54
2019-03-10T12:33:25.044Z,98342.42
2019-03-10T12:36:00.887Z,98340.78
2019-03-10T12:38:36.737Z,98339.21
2019-03-10T12:41:12.605Z,98327.84
2019-03-10T12:43:48.443Z,98329.98
2019-03-10T12:46:24.303Z,98325.05
2019-03-10T12:49:00.161Z,98320.97
2019-03-10T12:51:36.011Z,98311.55
2019-03-10T12:54:11.669Z,98311.31
2019-03-10T12:56:47.520Z,98293.31
2019-03-10T12:59:23.479Z,98281.13
2019-03-10T13:01:59.323Z,98283.03
2019-03-10T13:04:35.177Z,98267.23
2019-03-10T13:07:12.463Z,98251.40
2019-03-10T13:09:48.329Z,98257.77
2019-03-10T13:12:24.196Z,98241.33
2019-03-10T13:15:00.312Z,98231.06
2019-03-10T13:17:36.506Z,98213.33
2019-03-10T13:20:12.867Z,98197.38
2019-03-10T13:22:48.710Z,98185.42
2019-03-10T13:25:24.464Z,98173.34
2019-03-10T13:28:00.330Z,98149.16
2019-03-10T13:30:37.914Z,98142.20
2019-03-10T13:33:14.791Z,98129.87
2019-03-10T13:35:50.666Z,98139.66
2019-03-10T13:38:26.508Z,98123.14
2019-03-10T13:41:04.570Z,98111.91
2019-03-10T13:43:40.672Z,98109.25
2019-03-10T13:46:18.412Z,98107.05
2019-03-10T13:48:54.442Z,98094.59
2019-03-10T13:51:30.218Z,98087.84
2019-03-10T13:54:06.038Z,98085.67
2019-03-10T13:56:41.888Z,98071.55
2019-03-10T13:59:18.675Z,98072.16
2019-03-10T14:01:55.029Z,98065.86
2019-03-10T14:04:31.794Z,98045.48
2019-03-10T14:07:07.574Z,98032.57
2019-03-10T14:09:43.622Z,98029.05
2019-03-10T14:12:19.493Z,98004.41
2019-03-10T14:14:55.662Z,97988.80
2019-03-10T14:17:33.054Z,97992.08
2019-03-10T14:20:10.966Z,97979.28
2019-03-10T14:22:47.047Z,97972.59
2019-03-10T14:25:23.047Z,97962.38
2019-03-10T14:27:59.566Z,97951.16
2019-03-10T14:30:36.900Z,97933.27
2019-03-10T14:33:13.152Z,97932.84
2019-03-10T14:35:48.951Z,97921.24
2019-03-10T14:38:24.740Z,97909.97
2019-03-10T14:41:00.485Z,97897.32
2019-03-10T14:43:36.376Z,97879.98
2019-03-10T14:46:12.191Z,97886.93
2019-03-10T14:48:48.052Z,97867.27
2019-03-10T14:51:23.815Z,97855.38
2019-03-10T14:53:59.577Z,97854.09
2019-03-10T14:56:35.442Z,97860.98
2019-03-10T14:59:11.297Z,97843.99
2019-03-10T15:01:47.051Z,97854.40
2019-03-10T15:04:22.891Z,97832.97
2019-03-10T15:06:58.851Z,97829.78
2019-03-10T15:09:34.814Z,97827.91
2019-03-10T15:12:10.667Z,97811.95
2019-03-10T15:14:46.509Z,97791.59
2019-03-10T15:17:22.368Z,97777.38
2019-03-10T15:19:59.344Z,97780.41
2019-03-10T15:22:35.625Z,97771.23
2019-03-10T15:25:13.520Z,97774.38
2019-03-10T15:27:49.580Z,97765.35
2019-03-10T15:30:26.647Z,97753.55
2019-03-10T15:33:02.517Z,97740.97
2019-03-10T15:35:38.367Z,97727.89
2019-03-10T15:38:14.218Z,97707.80
2019-03-10T15:40:50.077Z,97708.92
2019-03-10T15:43:25.930Z,97708.38
2019-03-10T15:46:01.783Z,97679.55
2019-03-10T15:48:38.157Z,97662.49
2019-03-10T15:51:13.994Z,97628.70
2019-03-10T15:53:49.855Z,97592.28
2019-03-10T15:56:25.706Z,97637.23
2019-03-10T15:59:02.785Z,97600.13
2019-03-10T16:01:38.546Z,97575.38
2019-03-10T16:04:18.780Z,97610.83
2019-03-10T16:06:54.548Z,97613.89
2019-03-10T16:09:30.401Z,97607.95
2019-03-10T16:12:13.876Z,97621.55
2019-03-10T16:14:55.214Z,97621.55
2019-03-10T16:17:30.962Z,97622.87
2019-03-10T16:20:09.499Z,97619.17
2019-03-10T16:22:45.551Z,97619.45
2019-03-10T16:25:22.943Z,97640.33
2019-03-10T16:27:58.900Z,97645.79
2019-03-10T16:30:34.848Z,97649.56
2019-03-10T16:33:11.021Z,97660.61
2019-03-10T16:35:46.871Z,97669.28
2019-03-10T16:38:22.716Z,97659.84
2019-03-10T16:40:58.520Z,97660.27
2019-03-10T16:43:34.317Z,97663.13
2019-03-10T16:46:10.185Z,97647.91
2019-03-10T16:48:46.029Z,97647.91
2019-03-10T16:51:21.887Z,97642.47
2019-03-10T16:53:57.753Z,97642.88
2019-03-10T16:56:33.596Z,97655.59
2019-03-10T16:59:09.459Z,97650.49
2019-03-10T17:01:45.404Z,97648.63
2019-03-10T17:04:21.259Z,97644.93
2019-03-10T17:06:57.104Z,97633.44
2019-03-10T17:09:32.958Z,97616.34
2019-03-10T17:12:09.954Z,97607.33
2019-03-10T17:14:46.919Z,97601.84
2019-03-10T17:17:22.784Z,97601.08
2019-03-10T17:19:58.695Z,97612.39
2019-03-10T17:22:34.480Z,97610.14
2019-03-10T17:25:11.781Z,97607.18
2019-03-10T17:27:47.929Z,97601.31
2019-03-10T17:30:25.835Z,97601.94
2019-03-10T17:33:01.993Z,97610.61
2019-03-10T17:35:37.880Z,97606.96
2019-03-10T17:38:18.221Z,97610.97
2019-03-10T17:40:54.075Z,97612.11
2019-03-10T17:43:29.816Z,97620.80
2019-03-10T17:46:05.670Z,97608.28
2019-03-10T17:48:41.537Z,97623.89
2019-03-10T17:51:17.380Z,97624.16
2019-03-10T17:53:53.239Z,97626.31
2019-03-10T17:56:29.086Z,97621.38
2019-03-10T17:59:04.945Z,97615.77
2019-03-10T18:01:40.820Z,97607.59
2019-03-10T18:04:16.648Z,97612.20
2019-03-10T18:06:53.845Z,97616.27
2019-03-10T18:09:29.697Z,97629.12
2019-03-10T18:12:05.754Z,97630.03
2019-03-10T18:14:41.492Z,97630.03
2019-03-10T18:17:17.357Z,97635.55
2019-03-10T18:19:53.098Z,97654.14
2019-03-10T18:22:28.850Z,97657.13
2019-03-10T18:25:05.767Z,97663.52
2019-03-10T18:27:42.652Z,97666.02
2019-03-10T18:30:27.423Z,97660.09
2019-03-10T18:33:04.393Z,97659.38
2019-03-10T18:35:40.328Z,97655.56
2019-03-10T18:38:16.217Z,97643.11
2019-03-10T18:40:52.036Z,97638.13
2019-03-10T18:43:27.810Z,97639.95
2019-03-10T18:46:03.664Z,97635.77
2019-03-10T18:48:39.439Z,97632.39
2019-03-10T18:51:15.157Z,97636.05
2019-03-10T18:53:50.966Z,97636.38
2019-03-10T18:56:28.672Z,97654.02
2019-03-10T18:59:09.353Z,97658.25
2019-03-10T19:01:45.422Z,97655.97
2019-03-10T19:04:21.259Z,97655.59
2019-03-10T19:06:57.123Z,97649.94
2019-03-10T19:09:33.999Z,97638.61
2019-03-10T19:12:09.773Z,97642.97
2019-03-10T19:14:45.698Z,97650.56
2019-03-10T19:17:21.658Z,97644.91
2019-03-10T19:19:57.526Z,97650.56
2019-03-10T19:22:33.372Z,97655.25
2019-03-10T19:25:11.773Z,97653.44
2019-03-10T19:27:47.641Z,97666.16
2019-03-10T19:30:24.178Z,97661.89
2019-03-10T19:33:00.364Z,97656.25
2019-03-10T19:35:36.658Z,97657.83
2019-03-10T19:38:14.283Z,97658.81
2019-03-10T19:40:51.826Z,97665.54
2019-03-10T19:43:27.528Z,97670.36
2019-03-10T19:46:03.304Z,97671.91
2019-03-10T19:48:39.148Z,97690.09
2019-03-10T19:51:14.928Z,97682.45
2019-03-10T19:53:50.685Z,97698.30
2019-03-10T19:56:26.527Z,97695.99
2019-03-10T19:59:02.401Z,97721.41
2019-03-10T20:01:38.248Z,97718.22
2019-03-10T20:04:14.093Z,97727.30
2019-03-10T20:06:50.978Z,97736.15
2019-03-10T20:09:26.823Z,97769.18
2019-03-10T20:12:02.672Z,97726.95
2019-03-10T20:14:38.845Z,97730.41
2019-03-10T20:17:14.593Z,97725.48
2019-03-10T20:19:50.456Z,97709.05
2019-03-10T20:22:26.303Z,97702.45
2019-03-10T20:25:03.182Z,97707.41
2019-03-10T20:27:39.242Z,97703.33
2019-03-10T20:30:18.055Z,97716.83
2019-03-10T20:32:54.237Z,97713.09
2019-03-10T20:35:30.089Z,97694.99
2019-03-10T20:38:06.033Z,97704.61
2019-03-10T20:40:41.889Z,97700.98
2019-03-10T20:43:17.732Z,97693.75
2019-03-10T20:45:54.098Z,97691.21
2019-03-10T20:48:29.960Z,97698.10
2019-03-10T20:51:05.813Z,97698.48
2019-03-10T20:53:41.877Z,97696.81
2019-03-10T20:56:17.727Z,97687.77
2019-03-10T20:58:53.779Z,97676.56
2019-03-10T21:01:29.644Z,97670.66
2019-03-10T21:04:05.489Z,97673.30
2019-03-10T21:06:41.342Z,97677.16
2019-03-10T21:09:17.227Z,97678.34
2019-03-10T21:11:53.162Z,97676.06
2019-03-10T21:14:28.972Z,97667.28
2019-03-10T21:17:04.761Z,97663.30
2019-03-10T21:19:40.615Z,97663.91
2019-03-10T21:22:16.471Z,97652.94
2019-03-10T21:24:52.332Z,97643.77
2019-03-10T21:27:28.281Z,97644.83
2019-03-10T21:30:08.129Z,97640.80
2019-03-10T21:32:44.080Z,97654.16
2019-03-10T21:35:19.938Z,97657.10
2019-03-10T21:37:55.797Z,97654.67
2019-03-10T21:40:32.805Z,97668.16
2019-03-10T21:43:08.646Z,97655.88
2019-03-10T21:45:44.489Z,97652.17
2019-03-10T21:48:20.234Z,97668.31
2019-03-10T21:50:56.097Z,97661.69
2019-03-10T21:53:31.834Z,97657.31
2019-03-10T21:56:07.556Z,97643.29
2019-03-10T21:58:43.335Z,97664.06
2019-03-10T22:01:19.201Z,97666.88
2019-03-10T22:03:55.052Z,97669.09
2019-03-10T22:06:31.923Z,97664.23
2019-03-10T22:09:07.985Z,97654.11
2019-03-10T22:11:45.280Z,97649.91
2019-03-10T22:14:21.136Z,97652.84
2019-03-10T22:16:56.878Z,97658.05
2019-03-10T22:19:32.749Z,97651.78
2019-03-10T22:22:08.584Z,97660.46
2019-03-10T22:24:44.451Z,97673.57
2019-03-10T22:27:21.324Z,97659.52
2019-03-10T22:29:57.984Z,97665.11
2019-03-10T22:32:33.857Z,97671.34
2019-03-10T22:35:10.938Z,97682.67
2019-03-10T22:37:46.894Z,97637.03
2019-03-10T22:40:22.751Z,97692.72
2019-03-10T22:42:59.012Z,97665.55
2019-03-10T22:45:34.854Z,97691.45
2019-03-10T22:48:10.714Z,97721.16
2019-03-10T22:50:46.573Z,97727.52
2019-03-10T22:53:22.418Z,97729.12
2019-03-10T22:55:58.168Z,97700.67
2019-03-10T22:58:34.032Z,97743.19
2019-03-10T23:01:09.774Z,97720.92
2019-03-10T23:03:45.538Z,97696.27
2019-03-10T23:06:21.286Z,97671.25
2019-03-10T23:08:57.140Z,97670.18
2019-03-10T23:11:33.421Z,97663.27
2019-03-10T23:14:09.256Z,97662.70
2019-03-10T23:16:45.122Z,97677.81
2019-03-10T23:19:20.967Z,97672.84
2019-03-10T23:21:56.812Z,97634.97
2019-03-10T23:24:32.569Z,97657.38
2019-03-10T23:27:08.316Z,97664.45
2019-03-10T23:29:44.066Z,97662.63
2019-03-10T23:32:20.134Z,97672.52
2019-03-10T23:34:55.869Z,97660.96
2019-03-10T23:37:31.723Z,97680.74
2019-03-10T23:40:15.113Z,97662.18
2019-03-10T23:42:50.907Z,97699.45
2019-03-10T23:45:26.767Z,97694.61
2019-03-10T23:48:03.231Z,97716.54
2019-03-10T23:50:39.087Z,97661.08
2019-03-10T23:53:14.948Z,97705.63
2019-03-10T23:55:50.791Z,97776.95
2019-03-10T23:58:26.653Z,97766.30
